sensor_id;sensor_type;location;lat;lon;timestamp;P1;durP1;ratioP1;P2;durP2;ratioP2
65936;SDS011;52707;52.086;5.418;2024-02-14T00:02:18;6.70;;;5.32;;
65936;SDS011;52707;52.086;5.418;2024-02-14T00:04:45;7.97;;;4.75;;
65936;SDS011;52707;52.086;5.418;2024-02-14T00:07:11;10.23;;;5.28;;
65936;SDS011;52707;52.086;5.418;2024-02-14T00:09:38;5.97;;;4.45;;
65936;SDS011;52707;52.086;5.418;2024-02-14T00:12:04;8.32;;;5.10;;
65936;SDS011;52707;52.086;5.418;2024-02-14T00:14:30;7.95;;;5.03;;
65936;SDS011;52707;52.086;5.418;2024-02-14T00:16:57;7.30;;;5.18;;
65936;SDS011;52707;52.086;5.418;2024-02-14T00:19:25;5.00;;;4.50;;
65936;SDS011;52707;52.086;5.418;2024-02-14T00:21:51;5.60;;;4.55;;
65936;SDS011;52707;52.086;5.418;2024-02-14T00:24:18;4.97;;;4.45;;
65936;SDS011;52707;52.086;5.418;2024-02-14T00:26:44;7.57;;;4.95;;
65936;SDS011;52707;52.086;5.418;2024-02-14T00:29:12;8.48;;;5.10;;
65936;SDS011;52707;52.086;5.418;2024-02-14T00:31:38;8.07;;;5.05;;
65936;SDS011;52707;52.086;5.418;2024-02-14T00:34:05;7.43;;;5.45;;
65936;SDS011;52707;52.086;5.418;2024-02-14T00:36:31;6.47;;;5.78;;
65936;SDS011;52707;52.086;5.418;2024-02-14T00:38:58;8.10;;;6.05;;
65936;SDS011;52707;52.086;5.418;2024-02-14T00:41:24;8.40;;;5.85;;
65936;SDS011;52707;52.086;5.418;2024-02-14T00:43:55;9.90;;;6.80;;
65936;SDS011;52707;52.086;5.418;2024-02-14T00:46:21;13.63;;;6.63;;
65936;SDS011;52707;52.086;5.418;2024-02-14T00:48:48;7.03;;;6.32;;
65936;SDS011;52707;52.086;5.418;2024-02-14T00:51:14;9.65;;;6.45;;
65936;SDS011;52707;52.086;5.418;2024-02-14T00:53:41;8.63;;;7.03;;
65936;SDS011;52707;52.086;5.418;2024-02-14T00:56:07;7.97;;;7.03;;
65936;SDS011;52707;52.086;5.418;2024-02-14T00:58:34;10.50;;;7.53;;
65936;SDS011;52707;52.086;5.418;2024-02-14T01:01:00;11.30;;;7.78;;
65936;SDS011;52707;52.086;5.418;2024-02-14T01:03:27;8.52;;;7.30;;
65936;SDS011;52707;52.086;5.418;2024-02-14T01:05:53;10.90;;;8.15;;
65936;SDS011;52707;52.086;5.418;2024-02-14T01:08:20;16.80;;;8.43;;
65936;SDS011;52707;52.086;5.418;2024-02-14T01:10:46;14.00;;;7.95;;
65936;SDS011;52707;52.086;5.418;2024-02-14T01:13:13;11.13;;;8.00;;
65936;SDS011;52707;52.086;5.418;2024-02-14T01:15:39;12.05;;;8.05;;
65936;SDS011;52707;52.086;5.418;2024-02-14T01:18:06;13.00;;;7.63;;
65936;SDS011;52707;52.086;5.418;2024-02-14T01:20:32;9.85;;;8.43;;
65936;SDS011;52707;52.086;5.418;2024-02-14T01:22:59;10.93;;;7.55;;
65936;SDS011;52707;52.086;5.418;2024-02-14T01:25:26;13.80;;;9.00;;
65936;SDS011;52707;52.086;5.418;2024-02-14T01:27:52;12.50;;;8.77;;
65936;SDS011;52707;52.086;5.418;2024-02-14T01:30:21;12.13;;;7.90;;
65936;SDS011;52707;52.086;5.418;2024-02-14T01:32:47;14.98;;;7.93;;
65936;SDS011;52707;52.086;5.418;2024-02-14T01:35:14;11.35;;;8.75;;
65936;SDS011;52707;52.086;5.418;2024-02-14T01:37:40;12.63;;;8.48;;
65936;SDS011;52707;52.086;5.418;2024-02-14T01:40:07;15.80;;;8.32;;
65936;SDS011;52707;52.086;5.418;2024-02-14T01:42:33;14.93;;;9.38;;
65936;SDS011;52707;52.086;5.418;2024-02-14T01:45:00;13.23;;;9.13;;
65936;SDS011;52707;52.086;5.418;2024-02-14T01:47:26;15.18;;;10.07;;
65936;SDS011;52707;52.086;5.418;2024-02-14T01:49:53;19.23;;;10.65;;
65936;SDS011;52707;52.086;5.418;2024-02-14T01:52:20;14.25;;;9.77;;
65936;SDS011;52707;52.086;5.418;2024-02-14T01:54:47;13.93;;;9.88;;
65936;SDS011;52707;52.086;5.418;2024-02-14T01:57:14;14.10;;;10.10;;
65936;SDS011;52707;52.086;5.418;2024-02-14T01:59:41;14.48;;;10.10;;
65936;SDS011;52707;52.086;5.418;2024-02-14T02:02:07;18.45;;;10.23;;
65936;SDS011;52707;52.086;5.418;2024-02-14T02:04:34;14.02;;;9.75;;
65936;SDS011;52707;52.086;5.418;2024-02-14T02:07:00;12.48;;;9.57;;
65936;SDS011;52707;52.086;5.418;2024-02-14T02:09:27;13.45;;;9.68;;
65936;SDS011;52707;52.086;5.418;2024-02-14T02:11:53;15.52;;;10.90;;
65936;SDS011;52707;52.086;5.418;2024-02-14T02:14:20;16.83;;;11.02;;
65936;SDS011;52707;52.086;5.418;2024-02-14T02:16:48;19.63;;;11.52;;
65936;SDS011;52707;52.086;5.418;2024-02-14T02:19:15;17.05;;;11.32;;
65936;SDS011;52707;52.086;5.418;2024-02-14T02:21:42;14.02;;;10.35;;
65936;SDS011;52707;52.086;5.418;2024-02-14T02:24:14;17.17;;;11.48;;
65936;SDS011;52707;52.086;5.418;2024-02-14T02:26:40;14.45;;;10.52;;
65936;SDS011;52707;52.086;5.418;2024-02-14T02:29:07;17.75;;;11.02;;
65936;SDS011;52707;52.086;5.418;2024-02-14T02:31:33;18.38;;;10.88;;
65936;SDS011;52707;52.086;5.418;2024-02-14T02:34:00;18.00;;;11.15;;
65936;SDS011;52707;52.086;5.418;2024-02-14T02:36:26;16.70;;;11.23;;
65936;SDS011;52707;52.086;5.418;2024-02-14T02:38:56;15.23;;;12.18;;
65936;SDS011;52707;52.086;5.418;2024-02-14T02:41:24;16.92;;;11.73;;
65936;SDS011;52707;52.086;5.418;2024-02-14T02:43:50;15.40;;;12.05;;
65936;SDS011;52707;52.086;5.418;2024-02-14T02:46:17;16.88;;;12.82;;
65936;SDS011;52707;52.086;5.418;2024-02-14T02:48:43;16.88;;;12.07;;
65936;SDS011;52707;52.086;5.418;2024-02-14T02:51:10;17.65;;;13.15;;
65936;SDS011;52707;52.086;5.418;2024-02-14T02:53:36;17.92;;;13.05;;
65936;SDS011;52707;52.086;5.418;2024-02-14T02:56:03;18.75;;;13.43;;
65936;SDS011;52707;52.086;5.418;2024-02-14T02:58:29;16.25;;;11.95;;
65936;SDS011;52707;52.086;5.418;2024-02-14T03:00:56;22.10;;;12.55;;
65936;SDS011;52707;52.086;5.418;2024-02-14T03:03:24;20.58;;;13.35;;
65936;SDS011;52707;52.086;5.418;2024-02-14T03:05:53;12.90;;;11.35;;
65936;SDS011;52707;52.086;5.418;2024-02-14T03:08:21;19.08;;;12.32;;
65936;SDS011;52707;52.086;5.418;2024-02-14T03:10:51;16.63;;;12.48;;
65936;SDS011;52707;52.086;5.418;2024-02-14T03:13:18;14.45;;;11.73;;
65936;SDS011;52707;52.086;5.418;2024-02-14T03:15:46;16.73;;;11.80;;
65936;SDS011;52707;52.086;5.418;2024-02-14T03:18:12;13.25;;;11.73;;
65936;SDS011;52707;52.086;5.418;2024-02-14T03:20:39;15.65;;;12.40;;
65936;SDS011;52707;52.086;5.418;2024-02-14T03:23:05;16.33;;;12.95;;
65936;SDS011;52707;52.086;5.418;2024-02-14T03:25:32;17.92;;;13.40;;
65936;SDS011;52707;52.086;5.418;2024-02-14T03:27:58;20.88;;;14.50;;
65936;SDS011;52707;52.086;5.418;2024-02-14T03:30:25;23.95;;;14.02;;
65936;SDS011;52707;52.086;5.418;2024-02-14T03:32:51;20.30;;;13.10;;
65936;SDS011;52707;52.086;5.418;2024-02-14T03:35:19;25.25;;;15.40;;
65936;SDS011;52707;52.086;5.418;2024-02-14T03:37:47;23.63;;;14.65;;
65936;SDS011;52707;52.086;5.418;2024-02-14T03:40:18;27.02;;;14.15;;
65936;SDS011;52707;52.086;5.418;2024-02-14T03:42:46;27.42;;;14.60;;
65936;SDS011;52707;52.086;5.418;2024-02-14T03:45:12;19.75;;;14.07;;
65936;SDS011;52707;52.086;5.418;2024-02-14T03:47:40;21.75;;;13.50;;
65936;SDS011;52707;52.086;5.418;2024-02-14T03:50:08;29.45;;;15.57;;
65936;SDS011;52707;52.086;5.418;2024-02-14T03:52:35;20.90;;;13.70;;
65936;SDS011;52707;52.086;5.418;2024-02-14T03:55:01;26.10;;;15.60;;
65936;SDS011;52707;52.086;5.418;2024-02-14T03:57:28;26.67;;;14.45;;
65936;SDS011;52707;52.086;5.418;2024-02-14T03:59:55;24.70;;;14.70;;
65936;SDS011;52707;52.086;5.418;2024-02-14T04:02:22;25.27;;;14.80;;
65936;SDS011;52707;52.086;5.418;2024-02-14T04:04:49;26.85;;;14.13;;
65936;SDS011;52707;52.086;5.418;2024-02-14T04:07:16;27.10;;;15.18;;
65936;SDS011;52707;52.086;5.418;2024-02-14T04:09:42;21.48;;;13.45;;
65936;SDS011;52707;52.086;5.418;2024-02-14T04:12:08;24.70;;;14.57;;
65936;SDS011;52707;52.086;5.418;2024-02-14T04:14:36;29.60;;;14.27;;
65936;SDS011;52707;52.086;5.418;2024-02-14T04:17:04;26.80;;;13.77;;
65936;SDS011;52707;52.086;5.418;2024-02-14T04:19:30;21.30;;;13.25;;
65936;SDS011;52707;52.086;5.418;2024-02-14T04:21:57;26.42;;;14.07;;
65936;SDS011;52707;52.086;5.418;2024-02-14T04:24:23;29.52;;;13.73;;
65936;SDS011;52707;52.086;5.418;2024-02-14T04:26:50;23.17;;;14.27;;
65936;SDS011;52707;52.086;5.418;2024-02-14T04:29:16;33.15;;;14.05;;
65936;SDS011;52707;52.086;5.418;2024-02-14T04:31:42;25.20;;;13.40;;
65936;SDS011;52707;52.086;5.418;2024-02-14T04:34:09;26.40;;;14.55;;
65936;SDS011;52707;52.086;5.418;2024-02-14T04:36:36;28.67;;;14.40;;
65936;SDS011;52707;52.086;5.418;2024-02-14T04:39:02;31.10;;;14.55;;
65936;SDS011;52707;52.086;5.418;2024-02-14T04:41:29;36.90;;;15.18;;
65936;SDS011;52707;52.086;5.418;2024-02-14T04:43:56;30.15;;;14.98;;
65936;SDS011;52707;52.086;5.418;2024-02-14T04:46:23;25.98;;;14.13;;
65936;SDS011;52707;52.086;5.418;2024-02-14T04:48:49;28.98;;;13.93;;
65936;SDS011;52707;52.086;5.418;2024-02-14T04:51:16;31.30;;;14.38;;
65936;SDS011;52707;52.086;5.418;2024-02-14T04:53:42;24.55;;;14.40;;
65936;SDS011;52707;52.086;5.418;2024-02-14T04:56:08;22.98;;;14.13;;
65936;SDS011;52707;52.086;5.418;2024-02-14T04:58:35;26.70;;;14.63;;
65936;SDS011;52707;52.086;5.418;2024-02-14T05:01:02;23.77;;;15.02;;
65936;SDS011;52707;52.086;5.418;2024-02-14T05:03:28;31.08;;;13.98;;
65936;SDS011;52707;52.086;5.418;2024-02-14T05:05:55;25.50;;;14.75;;
65936;SDS011;52707;52.086;5.418;2024-02-14T05:08:22;25.08;;;14.55;;
65936;SDS011;52707;52.086;5.418;2024-02-14T05:10:48;23.75;;;15.30;;
65936;SDS011;52707;52.086;5.418;2024-02-14T05:13:14;24.50;;;13.93;;
65936;SDS011;52707;52.086;5.418;2024-02-14T05:15:42;25.77;;;16.20;;
65936;SDS011;52707;52.086;5.418;2024-02-14T05:18:08;22.30;;;13.57;;
65936;SDS011;52707;52.086;5.418;2024-02-14T05:20:36;25.13;;;14.52;;
65936;SDS011;52707;52.086;5.418;2024-02-14T05:23:04;26.45;;;14.63;;
65936;SDS011;52707;52.086;5.418;2024-02-14T05:25:30;22.20;;;14.13;;
65936;SDS011;52707;52.086;5.418;2024-02-14T05:27:59;29.63;;;15.30;;
65936;SDS011;52707;52.086;5.418;2024-02-14T05:30:26;25.73;;;15.05;;
65936;SDS011;52707;52.086;5.418;2024-02-14T05:32:53;24.13;;;14.57;;
65936;SDS011;52707;52.086;5.418;2024-02-14T05:35:20;24.75;;;14.60;;
65936;SDS011;52707;52.086;5.418;2024-02-14T05:37:46;25.10;;;14.95;;
65936;SDS011;52707;52.086;5.418;2024-02-14T05:40:15;22.35;;;14.65;;
65936;SDS011;52707;52.086;5.418;2024-02-14T05:42:42;22.38;;;14.00;;
65936;SDS011;52707;52.086;5.418;2024-02-14T05:45:12;20.85;;;13.48;;
65936;SDS011;52707;52.086;5.418;2024-02-14T05:47:38;21.75;;;15.18;;
65936;SDS011;52707;52.086;5.418;2024-02-14T05:50:05;24.88;;;14.00;;
65936;SDS011;52707;52.086;5.418;2024-02-14T05:52:32;25.58;;;15.00;;
65936;SDS011;52707;52.086;5.418;2024-02-14T05:54:58;20.98;;;13.93;;
65936;SDS011;52707;52.086;5.418;2024-02-14T05:57:25;16.80;;;14.20;;
65936;SDS011;52707;52.086;5.418;2024-02-14T05:59:52;20.38;;;14.82;;
65936;SDS011;52707;52.086;5.418;2024-02-14T06:02:18;20.75;;;14.63;;
65936;SDS011;52707;52.086;5.418;2024-02-14T06:04:44;18.92;;;14.25;;
65936;SDS011;52707;52.086;5.418;2024-02-14T06:07:11;22.90;;;14.77;;
65936;SDS011;52707;52.086;5.418;2024-02-14T06:09:38;19.63;;;13.77;;
65936;SDS011;52707;52.086;5.418;2024-02-14T06:12:04;17.35;;;12.93;;
65936;SDS011;52707;52.086;5.418;2024-02-14T06:14:31;18.08;;;12.82;;
65936;SDS011;52707;52.086;5.418;2024-02-14T06:17:00;16.60;;;13.18;;
65936;SDS011;52707;52.086;5.418;2024-02-14T06:19:29;21.55;;;13.73;;
65936;SDS011;52707;52.086;5.418;2024-02-14T06:21:56;22.98;;;12.50;;
65936;SDS011;52707;52.086;5.418;2024-02-14T06:24:23;15.63;;;10.88;;
65936;SDS011;52707;52.086;5.418;2024-02-14T06:26:49;14.30;;;11.45;;
65936;SDS011;52707;52.086;5.418;2024-02-14T06:29:15;17.58;;;12.05;;
65936;SDS011;52707;52.086;5.418;2024-02-14T06:31:42;19.08;;;11.75;;
65936;SDS011;52707;52.086;5.418;2024-02-14T06:34:08;15.05;;;11.45;;
65936;SDS011;52707;52.086;5.418;2024-02-14T06:36:35;15.75;;;12.50;;
65936;SDS011;52707;52.086;5.418;2024-02-14T06:39:02;13.93;;;12.43;;
65936;SDS011;52707;52.086;5.418;2024-02-14T06:41:28;16.38;;;12.25;;
65936;SDS011;52707;52.086;5.418;2024-02-14T06:43:56;19.55;;;13.20;;
65936;SDS011;52707;52.086;5.418;2024-02-14T06:46:22;22.27;;;14.05;;
65936;SDS011;52707;52.086;5.418;2024-02-14T06:48:49;26.08;;;15.32;;
65936;SDS011;52707;52.086;5.418;2024-02-14T06:51:16;20.20;;;15.23;;
65936;SDS011;52707;52.086;5.418;2024-02-14T06:53:42;24.73;;;16.08;;
65936;SDS011;52707;52.086;5.418;2024-02-14T06:56:08;27.85;;;16.45;;
65936;SDS011;52707;52.086;5.418;2024-02-14T06:58:35;25.35;;;16.73;;
65936;SDS011;52707;52.086;5.418;2024-02-14T07:01:02;25.83;;;18.30;;
65936;SDS011;52707;52.086;5.418;2024-02-14T07:03:29;31.92;;;18.80;;
65936;SDS011;52707;52.086;5.418;2024-02-14T07:05:55;29.73;;;19.13;;
65936;SDS011;52707;52.086;5.418;2024-02-14T07:08:22;33.50;;;20.25;;
65936;SDS011;52707;52.086;5.418;2024-02-14T07:10:50;36.60;;;21.08;;
65936;SDS011;52707;52.086;5.418;2024-02-14T07:13:16;34.78;;;20.60;;
65936;SDS011;52707;52.086;5.418;2024-02-14T07:15:43;32.53;;;20.67;;
65936;SDS011;52707;52.086;5.418;2024-02-14T07:18:09;40.15;;;22.88;;
65936;SDS011;52707;52.086;5.418;2024-02-14T07:20:36;34.00;;;22.40;;
65936;SDS011;52707;52.086;5.418;2024-02-14T07:23:02;41.42;;;23.25;;
65936;SDS011;52707;52.086;5.418;2024-02-14T07:25:30;39.80;;;24.20;;
65936;SDS011;52707;52.086;5.418;2024-02-14T07:27:56;37.25;;;23.55;;
65936;SDS011;52707;52.086;5.418;2024-02-14T07:30:23;33.00;;;21.50;;
65936;SDS011;52707;52.086;5.418;2024-02-14T07:32:49;37.15;;;22.40;;
65936;SDS011;52707;52.086;5.418;2024-02-14T07:35:17;40.65;;;20.83;;
65936;SDS011;52707;52.086;5.418;2024-02-14T07:37:43;33.72;;;21.40;;
65936;SDS011;52707;52.086;5.418;2024-02-14T07:40:10;40.50;;;22.20;;
65936;SDS011;52707;52.086;5.418;2024-02-14T07:42:38;38.03;;;21.90;;
65936;SDS011;52707;52.086;5.418;2024-02-14T07:45:05;35.03;;;23.02;;
65936;SDS011;52707;52.086;5.418;2024-02-14T07:47:31;38.30;;;22.85;;
65936;SDS011;52707;52.086;5.418;2024-02-14T07:49:58;36.78;;;22.23;;
65936;SDS011;52707;52.086;5.418;2024-02-14T07:52:26;34.20;;;20.70;;
65936;SDS011;52707;52.086;5.418;2024-02-14T07:54:53;30.63;;;21.75;;
65936;SDS011;52707;52.086;5.418;2024-02-14T07:57:21;28.83;;;20.20;;
65936;SDS011;52707;52.086;5.418;2024-02-14T07:59:48;29.95;;;20.52;;
65936;SDS011;52707;52.086;5.418;2024-02-14T08:02:14;28.40;;;19.30;;
65936;SDS011;52707;52.086;5.418;2024-02-14T08:04:41;31.80;;;18.85;;
65936;SDS011;52707;52.086;5.418;2024-02-14T08:07:07;27.52;;;19.17;;
65936;SDS011;52707;52.086;5.418;2024-02-14T08:09:34;23.88;;;17.35;;
65936;SDS011;52707;52.086;5.418;2024-02-14T08:12:01;25.42;;;18.20;;
65936;SDS011;52707;52.086;5.418;2024-02-14T08:14:27;25.80;;;18.08;;
65936;SDS011;52707;52.086;5.418;2024-02-14T08:16:54;31.75;;;19.23;;
65936;SDS011;52707;52.086;5.418;2024-02-14T08:19:20;29.88;;;19.63;;
65936;SDS011;52707;52.086;5.418;2024-02-14T08:21:47;32.22;;;20.30;;
65936;SDS011;52707;52.086;5.418;2024-02-14T08:24:13;27.27;;;20.25;;
65936;SDS011;52707;52.086;5.418;2024-02-14T08:26:39;31.50;;;20.83;;
65936;SDS011;52707;52.086;5.418;2024-02-14T08:29:06;31.17;;;20.98;;
65936;SDS011;52707;52.086;5.418;2024-02-14T08:31:32;29.02;;;19.55;;
65936;SDS011;52707;52.086;5.418;2024-02-14T08:33:59;30.08;;;21.52;;
65936;SDS011;52707;52.086;5.418;2024-02-14T08:36:26;31.40;;;21.33;;
65936;SDS011;52707;52.086;5.418;2024-02-14T08:38:52;39.35;;;21.45;;
65936;SDS011;52707;52.086;5.418;2024-02-14T08:41:18;31.92;;;21.45;;
65936;SDS011;52707;52.086;5.418;2024-02-14T08:43:45;29.08;;;20.52;;
65936;SDS011;52707;52.086;5.418;2024-02-14T08:46:13;28.77;;;20.77;;
65936;SDS011;52707;52.086;5.418;2024-02-14T08:48:41;26.67;;;19.92;;
65936;SDS011;52707;52.086;5.418;2024-02-14T08:51:14;31.98;;;21.05;;
65936;SDS011;52707;52.086;5.418;2024-02-14T08:53:40;29.85;;;20.27;;
65936;SDS011;52707;52.086;5.418;2024-02-14T08:56:08;35.85;;;18.50;;
65936;SDS011;52707;52.086;5.418;2024-02-14T08:58:35;25.35;;;18.70;;
65936;SDS011;52707;52.086;5.418;2024-02-14T09:01:01;25.75;;;17.83;;
65936;SDS011;52707;52.086;5.418;2024-02-14T09:03:39;23.88;;;17.80;;
65936;SDS011;52707;52.086;5.418;2024-02-14T09:06:06;23.67;;;18.10;;
65936;SDS011;52707;52.086;5.418;2024-02-14T09:08:33;24.67;;;18.70;;
65936;SDS011;52707;52.086;5.418;2024-02-14T09:10:59;23.65;;;17.52;;
65936;SDS011;52707;52.086;5.418;2024-02-14T09:13:26;22.20;;;16.35;;
65936;SDS011;52707;52.086;5.418;2024-02-14T09:15:53;21.33;;;16.42;;
65936;SDS011;52707;52.086;5.418;2024-02-14T09:18:20;22.35;;;16.65;;
65936;SDS011;52707;52.086;5.418;2024-02-14T09:20:47;21.27;;;16.65;;
65936;SDS011;52707;52.086;5.418;2024-02-14T09:23:13;24.33;;;17.17;;
65936;SDS011;52707;52.086;5.418;2024-02-14T09:25:41;27.20;;;18.38;;
65936;SDS011;52707;52.086;5.418;2024-02-14T09:28:07;25.90;;;17.92;;
65936;SDS011;52707;52.086;5.418;2024-02-14T09:30:35;24.85;;;17.73;;
65936;SDS011;52707;52.086;5.418;2024-02-14T09:33:04;22.92;;;17.00;;
65936;SDS011;52707;52.086;5.418;2024-02-14T09:35:31;22.95;;;16.50;;
65936;SDS011;52707;52.086;5.418;2024-02-14T09:37:58;23.35;;;16.60;;
65936;SDS011;52707;52.086;5.418;2024-02-14T09:40:25;24.70;;;17.20;;
65936;SDS011;52707;52.086;5.418;2024-02-14T09:42:55;21.38;;;16.88;;
65936;SDS011;52707;52.086;5.418;2024-02-14T09:45:22;21.27;;;16.17;;
65936;SDS011;52707;52.086;5.418;2024-02-14T09:47:51;22.58;;;16.63;;
65936;SDS011;52707;52.086;5.418;2024-02-14T09:50:19;25.77;;;17.35;;
65936;SDS011;52707;52.086;5.418;2024-02-14T09:52:47;26.88;;;18.17;;
65936;SDS011;52707;52.086;5.418;2024-02-14T09:55:14;24.80;;;19.58;;
65936;SDS011;52707;52.086;5.418;2024-02-14T09:57:42;27.92;;;19.80;;
65936;SDS011;52707;52.086;5.418;2024-02-14T10:00:12;32.40;;;19.65;;
65936;SDS011;52707;52.086;5.418;2024-02-14T10:02:40;26.95;;;19.95;;
65936;SDS011;52707;52.086;5.418;2024-02-14T10:05:07;28.25;;;19.67;;
65936;SDS011;52707;52.086;5.418;2024-02-14T10:07:43;33.78;;;20.15;;
65936;SDS011;52707;52.086;5.418;2024-02-14T10:10:10;31.92;;;18.50;;
65936;SDS011;52707;52.086;5.418;2024-02-14T10:12:37;27.73;;;17.33;;
65936;SDS011;52707;52.086;5.418;2024-02-14T10:15:04;28.35;;;18.35;;
65936;SDS011;52707;52.086;5.418;2024-02-14T10:17:32;28.83;;;17.05;;
65936;SDS011;52707;52.086;5.418;2024-02-14T10:19:59;25.38;;;17.30;;
65936;SDS011;52707;52.086;5.418;2024-02-14T10:22:32;24.05;;;16.95;;
65936;SDS011;52707;52.086;5.418;2024-02-14T10:25:00;25.00;;;16.08;;
65936;SDS011;52707;52.086;5.418;2024-02-14T10:27:27;23.23;;;16.08;;
65936;SDS011;52707;52.086;5.418;2024-02-14T10:29:55;22.33;;;16.25;;
65936;SDS011;52707;52.086;5.418;2024-02-14T10:32:22;26.85;;;16.38;;
65936;SDS011;52707;52.086;5.418;2024-02-14T10:34:50;33.50;;;15.70;;
65936;SDS011;52707;52.086;5.418;2024-02-14T10:37:17;28.88;;;15.68;;
65936;SDS011;52707;52.086;5.418;2024-02-14T10:39:47;23.52;;;15.02;;
65936;SDS011;52707;52.086;5.418;2024-02-14T10:42:15;20.55;;;14.85;;
65936;SDS011;52707;52.086;5.418;2024-02-14T10:44:41;23.48;;;14.40;;
65936;SDS011;52707;52.086;5.418;2024-02-14T10:47:09;21.83;;;14.55;;
65936;SDS011;52707;52.086;5.418;2024-02-14T10:49:37;16.33;;;13.70;;
65936;SDS011;52707;52.086;5.418;2024-02-14T10:52:05;27.58;;;13.93;;
65936;SDS011;52707;52.086;5.418;2024-02-14T10:54:34;20.77;;;14.75;;
65936;SDS011;52707;52.086;5.418;2024-02-14T10:57:04;22.10;;;14.45;;
65936;SDS011;52707;52.086;5.418;2024-02-14T10:59:30;18.15;;;14.07;;
65936;SDS011;52707;52.086;5.418;2024-02-14T11:01:57;19.08;;;14.07;;
65936;SDS011;52707;52.086;5.418;2024-02-14T11:04:24;17.23;;;14.20;;
65936;SDS011;52707;52.086;5.418;2024-02-14T11:06:53;18.80;;;14.13;;
65936;SDS011;52707;52.086;5.418;2024-02-14T11:09:31;21.60;;;13.65;;
65936;SDS011;52707;52.086;5.418;2024-02-14T11:12:03;19.17;;;13.35;;
65936;SDS011;52707;52.086;5.418;2024-02-14T11:14:32;17.45;;;12.10;;
65936;SDS011;52707;52.086;5.418;2024-02-14T11:17:02;19.05;;;12.68;;
65936;SDS011;52707;52.086;5.418;2024-02-14T11:19:31;18.48;;;11.70;;
65936;SDS011;52707;52.086;5.418;2024-02-14T11:22:12;19.20;;;12.18;;
65936;SDS011;52707;52.086;5.418;2024-02-14T11:24:39;19.08;;;11.85;;
65936;SDS011;52707;52.086;5.418;2024-02-14T11:27:09;16.33;;;11.88;;
65936;SDS011;52707;52.086;5.418;2024-02-14T11:29:51;13.40;;;10.68;;
65936;SDS011;52707;52.086;5.418;2024-02-14T11:32:18;18.30;;;12.02;;
65936;SDS011;52707;52.086;5.418;2024-02-14T11:34:54;16.38;;;11.38;;
65936;SDS011;52707;52.086;5.418;2024-02-14T11:37:28;18.80;;;11.88;;
65936;SDS011;52707;52.086;5.418;2024-02-14T11:39:55;15.45;;;12.52;;
65936;SDS011;52707;52.086;5.418;2024-02-14T11:42:24;13.70;;;11.70;;
65936;SDS011;52707;52.086;5.418;2024-02-14T11:44:52;18.85;;;12.57;;
65936;SDS011;52707;52.086;5.418;2024-02-14T11:47:19;14.48;;;12.63;;
65936;SDS011;52707;52.086;5.418;2024-02-14T11:49:46;18.08;;;12.27;;
65936;SDS011;52707;52.086;5.418;2024-02-14T11:52:12;16.73;;;13.07;;
65936;SDS011;52707;52.086;5.418;2024-02-14T11:54:45;16.40;;;13.05;;
65936;SDS011;52707;52.086;5.418;2024-02-14T11:57:11;16.88;;;12.68;;
65936;SDS011;52707;52.086;5.418;2024-02-14T11:59:38;16.33;;;11.77;;
65936;SDS011;52707;52.086;5.418;2024-02-14T12:02:05;18.63;;;12.20;;
65936;SDS011;52707;52.086;5.418;2024-02-14T12:04:32;23.75;;;12.85;;
65936;SDS011;52707;52.086;5.418;2024-02-14T12:06:59;15.90;;;11.52;;
65936;SDS011;52707;52.086;5.418;2024-02-14T12:09:26;14.75;;;11.35;;
65936;SDS011;52707;52.086;5.418;2024-02-14T12:11:55;14.45;;;10.30;;
65936;SDS011;52707;52.086;5.418;2024-02-14T12:14:23;15.15;;;9.98;;
65936;SDS011;52707;52.086;5.418;2024-02-14T12:16:51;14.70;;;10.23;;
65936;SDS011;52707;52.086;5.418;2024-02-14T12:21:49;15.00;;;9.82;;
65936;SDS011;52707;52.086;5.418;2024-02-14T12:24:16;14.65;;;9.30;;
65936;SDS011;52707;52.086;5.418;2024-02-14T12:26:43;13.40;;;9.52;;
65936;SDS011;52707;52.086;5.418;2024-02-14T12:29:12;17.55;;;9.63;;
65936;SDS011;52707;52.086;5.418;2024-02-14T12:31:40;11.80;;;8.95;;
65936;SDS011;52707;52.086;5.418;2024-02-14T12:34:06;11.23;;;9.63;;
65936;SDS011;52707;52.086;5.418;2024-02-14T12:36:33;12.95;;;9.40;;
65936;SDS011;52707;52.086;5.418;2024-02-14T12:39:00;11.45;;;8.32;;
65936;SDS011;52707;52.086;5.418;2024-02-14T12:41:29;10.60;;;8.85;;
65936;SDS011;52707;52.086;5.418;2024-02-14T12:43:56;10.35;;;8.55;;
65936;SDS011;52707;52.086;5.418;2024-02-14T12:46:23;11.45;;;7.32;;
65936;SDS011;52707;52.086;5.418;2024-02-14T12:48:49;9.57;;;7.97;;
65936;SDS011;52707;52.086;5.418;2024-02-14T12:51:16;10.82;;;8.40;;
65936;SDS011;52707;52.086;5.418;2024-02-14T12:53:43;10.30;;;7.40;;
65936;SDS011;52707;52.086;5.418;2024-02-14T12:56:10;6.97;;;6.38;;
65936;SDS011;52707;52.086;5.418;2024-02-14T12:58:36;9.35;;;7.07;;
65936;SDS011;52707;52.086;5.418;2024-02-14T13:01:02;9.50;;;6.63;;
65936;SDS011;52707;52.086;5.418;2024-02-14T13:03:32;6.50;;;5.80;;
65936;SDS011;52707;52.086;5.418;2024-02-14T13:05:59;6.95;;;5.43;;
65936;SDS011;52707;52.086;5.418;2024-02-14T13:08:26;6.22;;;5.63;;
65936;SDS011;52707;52.086;5.418;2024-02-14T13:10:53;6.00;;;5.38;;
65936;SDS011;52707;52.086;5.418;2024-02-14T13:13:19;6.68;;;5.63;;
65936;SDS011;52707;52.086;5.418;2024-02-14T13:15:46;7.05;;;5.72;;
65936;SDS011;52707;52.086;5.418;2024-02-14T13:18:12;9.52;;;5.70;;
65936;SDS011;52707;52.086;5.418;2024-02-14T13:20:39;5.68;;;5.18;;
65936;SDS011;52707;52.086;5.418;2024-02-14T13:23:05;8.43;;;5.28;;
65936;SDS011;52707;52.086;5.418;2024-02-14T13:25:35;5.70;;;5.13;;
65936;SDS011;52707;52.086;5.418;2024-02-14T13:28:04;6.05;;;5.10;;
65936;SDS011;52707;52.086;5.418;2024-02-14T13:30:30;5.32;;;4.72;;
65936;SDS011;52707;52.086;5.418;2024-02-14T13:32:57;5.40;;;4.90;;
65936;SDS011;52707;52.086;5.418;2024-02-14T13:35:23;5.20;;;4.80;;
65936;SDS011;52707;52.086;5.418;2024-02-14T13:37:50;5.05;;;4.65;;
65936;SDS011;52707;52.086;5.418;2024-02-14T13:40:16;7.15;;;4.80;;
65936;SDS011;52707;52.086;5.418;2024-02-14T13:42:43;10.60;;;5.50;;
65936;SDS011;52707;52.086;5.418;2024-02-14T13:45:09;6.40;;;5.80;;
65936;SDS011;52707;52.086;5.418;2024-02-14T13:47:37;6.32;;;5.70;;
65936;SDS011;52707;52.086;5.418;2024-02-14T13:50:07;9.63;;;5.93;;
65936;SDS011;52707;52.086;5.418;2024-02-14T13:52:34;6.18;;;5.68;;
65936;SDS011;52707;52.086;5.418;2024-02-14T13:55:01;7.95;;;5.93;;
65936;SDS011;52707;52.086;5.418;2024-02-14T13:57:28;7.00;;;6.30;;
65936;SDS011;52707;52.086;5.418;2024-02-14T13:59:56;7.90;;;6.60;;
65936;SDS011;52707;52.086;5.418;2024-02-14T14:02:23;7.63;;;6.82;;
65936;SDS011;52707;52.086;5.418;2024-02-14T14:04:49;9.18;;;6.72;;
65936;SDS011;52707;52.086;5.418;2024-02-14T14:07:16;11.38;;;8.18;;
65936;SDS011;52707;52.086;5.418;2024-02-14T14:09:42;10.02;;;9.02;;
65936;SDS011;52707;52.086;5.418;2024-02-14T14:12:09;12.60;;;10.05;;
65936;SDS011;52707;52.086;5.418;2024-02-14T14:14:37;10.82;;;9.25;;
65936;SDS011;52707;52.086;5.418;2024-02-14T14:17:04;15.88;;;11.20;;
65936;SDS011;52707;52.086;5.418;2024-02-14T14:19:31;12.88;;;10.40;;
65936;SDS011;52707;52.086;5.418;2024-02-14T14:21:57;12.18;;;10.57;;
65936;SDS011;52707;52.086;5.418;2024-02-14T14:24:24;24.80;;;12.68;;
65936;SDS011;52707;52.086;5.418;2024-02-14T14:26:52;13.65;;;11.02;;
65936;SDS011;52707;52.086;5.418;2024-02-14T14:29:19;17.65;;;12.45;;